Airfield :
LOGIN :

Register | Disclaimer

   EN    FR    IT 

 










Legend :    VFR   Marginal VFR   IFR   Intensive IFR   Very Intensive IFR
Visi :
Ceiling :
>= 8 km
>= 3000ft
5 to 8 km
1000 to 3000 ft
1500m to 5 km
500 to 1000 ft
800 to 1500m
200 to 500 ft
< 800m
< 200 ft
Symbols :   Thunderstorms  Fog  Heavy snow  Heavy precipitations  Wind > 20 kt
SIGMETs :     Misc.  Thunderstorms  Icing  Turbulence  Mountain Waves  Volcanic Ashes







- Airport Elevation : 1768 ft


LEHC - Huesca Pirineos

CURRENT METAR :
  • 121130Z 25004KT 190V300 9999 3000SW BCFG NSC 09/06 Q1019

EXPIRED METARs :
  • 121100Z VRB02KT 6000 1000W BCFG NSC 08/06 Q1019
  • 121048Z 24002KT 6000 0300W BCFG NSC 07/05 Q1019
  • 121030Z 25003KT 150V300 0050 R30L/P2000 PRFG NSC 07/06 Q1020
  • 121023Z 24003KT 170V300 0100 R30L/P2000 FG NSC 07/06 Q1020
  • 121000Z 05001KT 8000 BCFG NSC 05/05 Q1020
  • 120930Z 04001KT 5000 2000S BCFG NSC 04/04 Q1020
  • 120900Z 00000KT 2500 1000SE PRFG NSC 03/03 Q1020

TAF AMD TAF LEHC
Valid from the 12 at 10:00 until the 13 at 09:00 UTC


121027Z 1210/1309 VRB04KT 9999 SCT025 TX14/1213Z TN02/1306Z
TEMPO 1210/1212 0500 FG
BECMG 1210/1212 27008KT
BECMG 1220/1222 VRB04KT
TEMPO 1221/1309 3000 BR BKN014
PROB30
TEMPO 1300/1306 0800 FG VV002
TEMPO 1307/1309 4000 RA BR BKN025
No reported NOTAMs for that airfield.



MET'MAP, your aeronautical weather chart ! - Copyright ORBIFLY December 2007 - Disclaimer

ORBIFLY MET'MAP TEAM :

Programming & Development : Alexandra Zaïnal
Concept & Development : Baudouin d'Aumeries
Co-Development & Prog : Marc-Olivier Méhu
Technical & hardware support : Manuel Goepfert

Contact : metmap@orbifly.com




SOURCES & CREDITS :

   NOAA